sensor_id;sensor_type;location;lat;lon;timestamp;P1;durP1;ratioP1;P2;durP2;ratioP2
9938;SDS011;5008;50.656;7.188;2022-10-16T00:00:42;7.33;;;3.40;;
9938;SDS011;5008;50.656;7.188;2022-10-16T00:03:11;3.43;;;3.00;;
9938;SDS011;5008;50.656;7.188;2022-10-16T00:05:38;4.50;;;3.17;;
9938;SDS011;5008;50.656;7.188;2022-10-16T00:08:07;4.57;;;3.10;;
9938;SDS011;5008;50.656;7.188;2022-10-16T00:10:34;3.30;;;2.97;;
9938;SDS011;5008;50.656;7.188;2022-10-16T00:13:08;4.60;;;2.90;;
9938;SDS011;5008;50.656;7.188;2022-10-16T00:15:35;3.97;;;3.43;;
9938;SDS011;5008;50.656;7.188;2022-10-16T00:18:06;4.23;;;2.77;;
9938;SDS011;5008;50.656;7.188;2022-10-16T00:20:35;4.57;;;3.53;;
9938;SDS011;5008;50.656;7.188;2022-10-16T00:23:02;3.83;;;3.10;;
9938;SDS011;5008;50.656;7.188;2022-10-16T00:25:30;3.53;;;3.20;;
9938;SDS011;5008;50.656;7.188;2022-10-16T00:27:58;6.73;;;3.50;;
9938;SDS011;5008;50.656;7.188;2022-10-16T00:30:29;3.23;;;2.90;;
9938;SDS011;5008;50.656;7.188;2022-10-16T00:32:55;3.10;;;2.90;;
9938;SDS011;5008;50.656;7.188;2022-10-16T00:35:25;5.63;;;3.40;;
9938;SDS011;5008;50.656;7.188;2022-10-16T00:37:57;3.83;;;2.93;;
9938;SDS011;5008;50.656;7.188;2022-10-16T00:40:24;3.93;;;3.50;;
9938;SDS011;5008;50.656;7.188;2022-10-16T00:42:50;3.30;;;3.00;;
9938;SDS011;5008;50.656;7.188;2022-10-16T00:45:17;3.37;;;3.07;;
9938;SDS011;5008;50.656;7.188;2022-10-16T00:47:45;5.10;;;3.40;;
9938;SDS011;5008;50.656;7.188;2022-10-16T00:50:16;4.40;;;3.77;;
9938;SDS011;5008;50.656;7.188;2022-10-16T00:52:48;8.10;;;3.97;;
9938;SDS011;5008;50.656;7.188;2022-10-16T00:55:19;5.40;;;4.37;;
9938;SDS011;5008;50.656;7.188;2022-10-16T00:57:46;4.93;;;4.23;;
9938;SDS011;5008;50.656;7.188;2022-10-16T01:00:15;5.27;;;4.00;;
9938;SDS011;5008;50.656;7.188;2022-10-16T01:02:44;6.40;;;4.47;;
9938;SDS011;5008;50.656;7.188;2022-10-16T01:05:17;5.67;;;4.37;;
9938;SDS011;5008;50.656;7.188;2022-10-16T01:07:45;5.20;;;4.70;;
9938;SDS011;5008;50.656;7.188;2022-10-16T01:10:22;4.67;;;4.27;;
9938;SDS011;5008;50.656;7.188;2022-10-16T01:12:54;4.07;;;3.67;;
9938;SDS011;5008;50.656;7.188;2022-10-16T01:15:26;4.70;;;3.13;;
9938;SDS011;5008;50.656;7.188;2022-10-16T01:17:57;3.87;;;3.57;;
9938;SDS011;5008;50.656;7.188;2022-10-16T01:20:35;6.00;;;4.07;;
9938;SDS011;5008;50.656;7.188;2022-10-16T01:23:07;4.60;;;4.20;;
9938;SDS011;5008;50.656;7.188;2022-10-16T01:28:41;4.03;;;3.70;;
9938;SDS011;5008;50.656;7.188;2022-10-16T01:31:14;3.97;;;3.67;;
9938;SDS011;5008;50.656;7.188;2022-10-16T01:33:45;4.33;;;3.53;;
9938;SDS011;5008;50.656;7.188;2022-10-16T01:36:15;8.07;;;3.90;;
9938;SDS011;5008;50.656;7.188;2022-10-16T01:38:44;4.47;;;3.27;;
9938;SDS011;5008;50.656;7.188;2022-10-16T01:41:16;3.90;;;3.60;;
9938;SDS011;5008;50.656;7.188;2022-10-16T01:43:49;3.87;;;3.57;;
9938;SDS011;5008;50.656;7.188;2022-10-16T01:46:19;7.40;;;3.40;;
9938;SDS011;5008;50.656;7.188;2022-10-16T01:48:48;6.20;;;3.27;;
9938;SDS011;5008;50.656;7.188;2022-10-16T01:51:17;5.33;;;3.80;;
9938;SDS011;5008;50.656;7.188;2022-10-16T01:53:46;4.00;;;3.57;;
9938;SDS011;5008;50.656;7.188;2022-10-16T01:56:14;5.80;;;3.40;;
9938;SDS011;5008;50.656;7.188;2022-10-16T01:58:44;4.60;;;3.30;;
9938;SDS011;5008;50.656;7.188;2022-10-16T02:01:17;4.60;;;3.50;;
9938;SDS011;5008;50.656;7.188;2022-10-16T02:03:46;4.60;;;3.00;;
9938;SDS011;5008;50.656;7.188;2022-10-16T02:06:18;5.83;;;3.03;;
9938;SDS011;5008;50.656;7.188;2022-10-16T02:08:45;7.17;;;6.47;;
9938;SDS011;5008;50.656;7.188;2022-10-16T02:11:12;5.30;;;4.00;;
9938;SDS011;5008;50.656;7.188;2022-10-16T02:13:41;6.37;;;3.60;;
9938;SDS011;5008;50.656;7.188;2022-10-16T02:16:13;3.47;;;3.17;;
9938;SDS011;5008;50.656;7.188;2022-10-16T02:18:42;3.53;;;3.23;;
9938;SDS011;5008;50.656;7.188;2022-10-16T02:21:11;3.80;;;3.50;;
9938;SDS011;5008;50.656;7.188;2022-10-16T02:23:44;4.17;;;3.20;;
9938;SDS011;5008;50.656;7.188;2022-10-16T02:26:20;4.70;;;3.20;;
9938;SDS011;5008;50.656;7.188;2022-10-16T02:28:54;3.57;;;3.23;;
9938;SDS011;5008;50.656;7.188;2022-10-16T02:31:27;3.77;;;2.83;;
9938;SDS011;5008;50.656;7.188;2022-10-16T02:33:58;4.47;;;3.03;;
9938;SDS011;5008;50.656;7.188;2022-10-16T02:36:26;3.67;;;3.37;;
9938;SDS011;5008;50.656;7.188;2022-10-16T02:38:53;5.37;;;3.30;;
9938;SDS011;5008;50.656;7.188;2022-10-16T02:41:20;3.70;;;2.90;;
9938;SDS011;5008;50.656;7.188;2022-10-16T02:43:48;3.57;;;2.67;;
9938;SDS011;5008;50.656;7.188;2022-10-16T02:46:15;3.30;;;3.00;;
9938;SDS011;5008;50.656;7.188;2022-10-16T02:48:43;5.00;;;3.20;;
9938;SDS011;5008;50.656;7.188;2022-10-16T02:51:11;3.17;;;2.87;;
9938;SDS011;5008;50.656;7.188;2022-10-16T02:53:38;4.03;;;2.77;;
9938;SDS011;5008;50.656;7.188;2022-10-16T02:56:05;4.67;;;2.97;;
9938;SDS011;5008;50.656;7.188;2022-10-16T02:58:32;3.17;;;2.90;;
9938;SDS011;5008;50.656;7.188;2022-10-16T03:00:59;3.77;;;2.80;;
9938;SDS011;5008;50.656;7.188;2022-10-16T03:03:26;3.10;;;2.60;;
9938;SDS011;5008;50.656;7.188;2022-10-16T03:05:53;3.60;;;2.80;;
9938;SDS011;5008;50.656;7.188;2022-10-16T03:08:21;2.90;;;2.60;;
9938;SDS011;5008;50.656;7.188;2022-10-16T03:10:50;3.57;;;2.57;;
9938;SDS011;5008;50.656;7.188;2022-10-16T03:13:17;3.17;;;2.83;;
9938;SDS011;5008;50.656;7.188;2022-10-16T03:15:45;2.70;;;2.50;;
9938;SDS011;5008;50.656;7.188;2022-10-16T03:18:12;2.70;;;2.50;;
9938;SDS011;5008;50.656;7.188;2022-10-16T03:20:39;2.40;;;2.20;;
9938;SDS011;5008;50.656;7.188;2022-10-16T03:23:06;2.20;;;2.10;;
9938;SDS011;5008;50.656;7.188;2022-10-16T03:25:35;2.70;;;1.97;;
9938;SDS011;5008;50.656;7.188;2022-10-16T03:28:02;3.13;;;2.40;;
9938;SDS011;5008;50.656;7.188;2022-10-16T03:30:29;3.00;;;2.70;;
9938;SDS011;5008;50.656;7.188;2022-10-16T03:32:56;6.00;;;2.20;;
9938;SDS011;5008;50.656;7.188;2022-10-16T03:35:23;2.27;;;1.97;;
9938;SDS011;5008;50.656;7.188;2022-10-16T03:37:50;2.57;;;2.30;;
9938;SDS011;5008;50.656;7.188;2022-10-16T03:40:17;2.33;;;2.07;;
9938;SDS011;5008;50.656;7.188;2022-10-16T03:42:46;2.00;;;1.90;;
9938;SDS011;5008;50.656;7.188;2022-10-16T03:45:13;1.90;;;1.80;;
9938;SDS011;5008;50.656;7.188;2022-10-16T03:47:40;1.90;;;1.80;;
9938;SDS011;5008;50.656;7.188;2022-10-16T03:50:07;1.83;;;1.73;;
9938;SDS011;5008;50.656;7.188;2022-10-16T03:52:35;2.40;;;2.20;;
9938;SDS011;5008;50.656;7.188;2022-10-16T03:55:02;2.23;;;1.80;;
9938;SDS011;5008;50.656;7.188;2022-10-16T03:57:29;2.90;;;1.70;;
9938;SDS011;5008;50.656;7.188;2022-10-16T03:59:57;2.23;;;2.03;;
9938;SDS011;5008;50.656;7.188;2022-10-16T04:02:24;1.60;;;1.50;;
9938;SDS011;5008;50.656;7.188;2022-10-16T04:04:51;2.40;;;1.80;;
9938;SDS011;5008;50.656;7.188;2022-10-16T04:07:18;2.87;;;2.10;;
9938;SDS011;5008;50.656;7.188;2022-10-16T04:09:45;3.33;;;1.93;;
9938;SDS011;5008;50.656;7.188;2022-10-16T04:12:12;1.87;;;1.77;;
9938;SDS011;5008;50.656;7.188;2022-10-16T04:14:39;1.80;;;1.70;;
9938;SDS011;5008;50.656;7.188;2022-10-16T04:17:07;1.70;;;1.60;;
9938;SDS011;5008;50.656;7.188;2022-10-16T04:19:34;1.73;;;1.60;;
9938;SDS011;5008;50.656;7.188;2022-10-16T04:22:00;1.90;;;1.60;;
9938;SDS011;5008;50.656;7.188;2022-10-16T04:24:27;1.27;;;1.20;;
9938;SDS011;5008;50.656;7.188;2022-10-16T04:26:54;2.13;;;1.60;;
9938;SDS011;5008;50.656;7.188;2022-10-16T04:29:21;1.70;;;1.60;;
9938;SDS011;5008;50.656;7.188;2022-10-16T04:31:48;2.47;;;1.80;;
9938;SDS011;5008;50.656;7.188;2022-10-16T04:34:16;1.77;;;1.67;;
9938;SDS011;5008;50.656;7.188;2022-10-16T04:36:43;2.43;;;2.00;;
9938;SDS011;5008;50.656;7.188;2022-10-16T04:39:12;2.87;;;1.87;;
9938;SDS011;5008;50.656;7.188;2022-10-16T04:41:39;3.27;;;2.00;;
9938;SDS011;5008;50.656;7.188;2022-10-16T04:44:06;2.17;;;1.90;;
9938;SDS011;5008;50.656;7.188;2022-10-16T04:46:33;2.07;;;1.87;;
9938;SDS011;5008;50.656;7.188;2022-10-16T04:49:00;2.40;;;2.00;;
9938;SDS011;5008;50.656;7.188;2022-10-16T04:51:28;2.60;;;1.90;;
9938;SDS011;5008;50.656;7.188;2022-10-16T04:53:55;2.00;;;1.90;;
9938;SDS011;5008;50.656;7.188;2022-10-16T04:56:22;2.40;;;2.03;;
9938;SDS011;5008;50.656;7.188;2022-10-16T04:58:49;3.87;;;1.90;;
9938;SDS011;5008;50.656;7.188;2022-10-16T05:01:16;2.50;;;2.30;;
9938;SDS011;5008;50.656;7.188;2022-10-16T05:03:43;3.00;;;2.30;;
9938;SDS011;5008;50.656;7.188;2022-10-16T05:06:09;2.33;;;1.90;;
9938;SDS011;5008;50.656;7.188;2022-10-16T05:08:37;2.00;;;1.90;;
9938;SDS011;5008;50.656;7.188;2022-10-16T05:11:04;3.20;;;2.07;;
9938;SDS011;5008;50.656;7.188;2022-10-16T05:13:31;2.23;;;1.97;;
9938;SDS011;5008;50.656;7.188;2022-10-16T05:15:58;1.83;;;1.73;;
9938;SDS011;5008;50.656;7.188;2022-10-16T05:18:25;3.70;;;2.30;;
9938;SDS011;5008;50.656;7.188;2022-10-16T05:20:52;2.77;;;2.10;;
9938;SDS011;5008;50.656;7.188;2022-10-16T05:23:18;3.80;;;2.03;;
9938;SDS011;5008;50.656;7.188;2022-10-16T05:25:52;2.10;;;2.00;;
9938;SDS011;5008;50.656;7.188;2022-10-16T05:28:20;2.10;;;2.00;;
9938;SDS011;5008;50.656;7.188;2022-10-16T05:30:47;1.77;;;1.67;;
9938;SDS011;5008;50.656;7.188;2022-10-16T05:33:14;2.83;;;1.87;;
9938;SDS011;5008;50.656;7.188;2022-10-16T05:35:41;2.60;;;2.17;;
9938;SDS011;5008;50.656;7.188;2022-10-16T05:38:08;1.87;;;1.77;;
9938;SDS011;5008;50.656;7.188;2022-10-16T05:40:35;2.17;;;1.97;;
9938;SDS011;5008;50.656;7.188;2022-10-16T05:43:03;1.80;;;1.70;;
9938;SDS011;5008;50.656;7.188;2022-10-16T05:45:30;1.90;;;1.80;;
9938;SDS011;5008;50.656;7.188;2022-10-16T05:47:57;1.60;;;1.50;;
9938;SDS011;5008;50.656;7.188;2022-10-16T05:50:24;1.77;;;1.67;;
9938;SDS011;5008;50.656;7.188;2022-10-16T05:52:51;1.70;;;1.60;;
9938;SDS011;5008;50.656;7.188;2022-10-16T05:55:18;2.17;;;2.00;;
9938;SDS011;5008;50.656;7.188;2022-10-16T05:57:44;1.80;;;1.70;;
9938;SDS011;5008;50.656;7.188;2022-10-16T06:00:13;2.33;;;1.93;;
9938;SDS011;5008;50.656;7.188;2022-10-16T06:02:40;1.93;;;1.83;;
9938;SDS011;5008;50.656;7.188;2022-10-16T06:05:07;1.70;;;1.60;;
9938;SDS011;5008;50.656;7.188;2022-10-16T06:07:34;2.20;;;2.00;;
9938;SDS011;5008;50.656;7.188;2022-10-16T06:10:01;1.97;;;1.77;;
9938;SDS011;5008;50.656;7.188;2022-10-16T06:12:29;2.10;;;1.70;;
9938;SDS011;5008;50.656;7.188;2022-10-16T06:14:56;2.77;;;1.93;;
9938;SDS011;5008;50.656;7.188;2022-10-16T06:17:24;2.00;;;1.70;;
9938;SDS011;5008;50.656;7.188;2022-10-16T06:19:51;2.20;;;1.83;;
9938;SDS011;5008;50.656;7.188;2022-10-16T06:22:18;1.70;;;1.60;;
9938;SDS011;5008;50.656;7.188;2022-10-16T06:24:45;3.03;;;1.97;;
9938;SDS011;5008;50.656;7.188;2022-10-16T06:27:12;2.70;;;1.93;;
9938;SDS011;5008;50.656;7.188;2022-10-16T06:29:39;2.25;;;1.85;;
9938;SDS011;5008;50.656;7.188;2022-10-16T06:32:08;2.60;;;1.87;;
9938;SDS011;5008;50.656;7.188;2022-10-16T06:34:36;2.20;;;2.00;;
9938;SDS011;5008;50.656;7.188;2022-10-16T06:37:05;1.90;;;1.80;;
9938;SDS011;5008;50.656;7.188;2022-10-16T06:39:32;2.07;;;1.70;;
9938;SDS011;5008;50.656;7.188;2022-10-16T06:41:58;1.90;;;1.73;;
9938;SDS011;5008;50.656;7.188;2022-10-16T06:44:25;2.00;;;1.87;;
9938;SDS011;5008;50.656;7.188;2022-10-16T06:46:52;2.30;;;1.77;;
9938;SDS011;5008;50.656;7.188;2022-10-16T06:49:19;3.40;;;1.53;;
9938;SDS011;5008;50.656;7.188;2022-10-16T06:51:48;1.77;;;1.67;;
9938;SDS011;5008;50.656;7.188;2022-10-16T06:54:15;1.70;;;1.60;;
9938;SDS011;5008;50.656;7.188;2022-10-16T06:56:42;1.58;;;1.48;;
9938;SDS011;5008;50.656;7.188;2022-10-16T06:59:09;1.60;;;1.50;;
9938;SDS011;5008;50.656;7.188;2022-10-16T07:01:36;3.00;;;1.80;;
9938;SDS011;5008;50.656;7.188;2022-10-16T07:04:03;1.77;;;1.67;;
9938;SDS011;5008;50.656;7.188;2022-10-16T07:06:30;1.67;;;1.58;;
9938;SDS011;5008;50.656;7.188;2022-10-16T07:09:02;2.63;;;1.60;;
9938;SDS011;5008;50.656;7.188;2022-10-16T07:11:30;4.37;;;1.77;;
9938;SDS011;5008;50.656;7.188;2022-10-16T07:13:57;1.97;;;1.73;;
9938;SDS011;5008;50.656;7.188;2022-10-16T07:16:25;2.03;;;1.93;;
9938;SDS011;5008;50.656;7.188;2022-10-16T07:18:53;4.03;;;1.97;;
9938;SDS011;5008;50.656;7.188;2022-10-16T07:21:23;1.92;;;1.83;;
9938;SDS011;5008;50.656;7.188;2022-10-16T07:23:51;1.60;;;1.50;;
9938;SDS011;5008;50.656;7.188;2022-10-16T07:26:20;2.30;;;2.17;;
9938;SDS011;5008;50.656;7.188;2022-10-16T07:28:47;3.63;;;1.60;;
9938;SDS011;5008;50.656;7.188;2022-10-16T07:31:15;1.80;;;1.70;;
9938;SDS011;5008;50.656;7.188;2022-10-16T07:33:43;2.37;;;1.90;;
9938;SDS011;5008;50.656;7.188;2022-10-16T07:36:10;1.85;;;1.75;;
9938;SDS011;5008;50.656;7.188;2022-10-16T07:38:38;2.35;;;2.15;;
9938;SDS011;5008;50.656;7.188;2022-10-16T07:41:05;2.37;;;2.00;;
9938;SDS011;5008;50.656;7.188;2022-10-16T07:43:35;1.70;;;1.60;;
9938;SDS011;5008;50.656;7.188;2022-10-16T07:46:02;2.28;;;2.08;;
9938;SDS011;5008;50.656;7.188;2022-10-16T07:48:30;2.40;;;2.30;;
9938;SDS011;5008;50.656;7.188;2022-10-16T07:51:02;2.30;;;2.10;;
9938;SDS011;5008;50.656;7.188;2022-10-16T07:53:30;3.27;;;1.97;;
9938;SDS011;5008;50.656;7.188;2022-10-16T07:55:59;2.67;;;1.98;;
9938;SDS011;5008;50.656;7.188;2022-10-16T07:58:26;3.00;;;1.95;;
9938;SDS011;5008;50.656;7.188;2022-10-16T08:00:55;4.15;;;2.10;;
9938;SDS011;5008;50.656;7.188;2022-10-16T08:03:23;3.40;;;2.10;;
9938;SDS011;5008;50.656;7.188;2022-10-16T08:05:50;2.20;;;2.10;;
9938;SDS011;5008;50.656;7.188;2022-10-16T08:08:17;1.90;;;1.50;;
9938;SDS011;5008;50.656;7.188;2022-10-16T08:10:45;1.52;;;1.42;;
9938;SDS011;5008;50.656;7.188;2022-10-16T08:13:12;1.58;;;1.48;;
9938;SDS011;5008;50.656;7.188;2022-10-16T08:15:39;2.00;;;1.80;;
9938;SDS011;5008;50.656;7.188;2022-10-16T08:18:09;2.47;;;1.80;;
9938;SDS011;5008;50.656;7.188;2022-10-16T08:20:39;2.20;;;1.67;;
9938;SDS011;5008;50.656;7.188;2022-10-16T08:23:06;1.88;;;1.77;;
9938;SDS011;5008;50.656;7.188;2022-10-16T08:25:35;2.78;;;1.80;;
9938;SDS011;5008;50.656;7.188;2022-10-16T08:28:02;2.35;;;1.85;;
9938;SDS011;5008;50.656;7.188;2022-10-16T08:30:30;1.83;;;1.73;;
9938;SDS011;5008;50.656;7.188;2022-10-16T08:32:57;1.83;;;1.70;;
9938;SDS011;5008;50.656;7.188;2022-10-16T08:35:31;1.98;;;1.88;;
9938;SDS011;5008;50.656;7.188;2022-10-16T08:37:58;1.85;;;1.75;;
9938;SDS011;5008;50.656;7.188;2022-10-16T08:40:26;1.60;;;1.50;;
9938;SDS011;5008;50.656;7.188;2022-10-16T08:43:04;1.30;;;1.30;;
9938;SDS011;5008;50.656;7.188;2022-10-16T08:45:41;2.08;;;1.30;;
9938;SDS011;5008;50.656;7.188;2022-10-16T08:48:17;1.77;;;1.50;;
9938;SDS011;5008;50.656;7.188;2022-10-16T08:50:49;1.17;;;1.00;;
9938;SDS011;5008;50.656;7.188;2022-10-16T08:53:18;1.48;;;1.20;;
9938;SDS011;5008;50.656;7.188;2022-10-16T08:55:50;1.20;;;1.10;;
9938;SDS011;5008;50.656;7.188;2022-10-16T08:58:18;1.00;;;0.95;;
9938;SDS011;5008;50.656;7.188;2022-10-16T09:00:47;0.93;;;0.93;;
9938;SDS011;5008;50.656;7.188;2022-10-16T09:03:24;1.77;;;1.13;;
9938;SDS011;5008;50.656;7.188;2022-10-16T09:08:54;0.85;;;0.80;;
9938;SDS011;5008;50.656;7.188;2022-10-16T09:11:36;2.65;;;0.80;;
9938;SDS011;5008;50.656;7.188;2022-10-16T10:03:32;0.82;;;0.80;;
9938;SDS011;5008;50.656;7.188;2022-10-16T10:06:04;1.27;;;1.17;;
9938;SDS011;5008;50.656;7.188;2022-10-16T10:08:56;1.40;;;1.30;;
9938;SDS011;5008;50.656;7.188;2022-10-16T10:11:44;0.60;;;0.60;;
9938;SDS011;5008;50.656;7.188;2022-10-16T10:14:16;1.27;;;1.17;;
9938;SDS011;5008;50.656;7.188;2022-10-16T10:19:40;0.70;;;0.70;;
9938;SDS011;5008;50.656;7.188;2022-10-16T10:22:25;0.80;;;0.80;;
9938;SDS011;5008;50.656;7.188;2022-10-16T10:25:10;1.30;;;0.65;;
9938;SDS011;5008;50.656;7.188;2022-10-16T10:27:50;1.30;;;1.23;;
9938;SDS011;5008;50.656;7.188;2022-10-16T10:30:29;1.40;;;1.30;;
9938;SDS011;5008;50.656;7.188;2022-10-16T10:33:09;2.03;;;1.15;;
9938;SDS011;5008;50.656;7.188;2022-10-16T10:35:48;0.90;;;0.90;;
9938;SDS011;5008;50.656;7.188;2022-10-16T10:38:28;0.85;;;0.60;;
9938;SDS011;5008;50.656;7.188;2022-10-16T10:41:09;5.05;;;1.23;;
9938;SDS011;5008;50.656;7.188;2022-10-16T10:43:54;3.10;;;2.60;;
9938;SDS011;5008;50.656;7.188;2022-10-16T10:46:31;2.50;;;2.30;;
9938;SDS011;5008;50.656;7.188;2022-10-16T10:51:55;2.03;;;1.70;;
9938;SDS011;5008;50.656;7.188;2022-10-16T10:54:45;1.33;;;1.23;;
9938;SDS011;5008;50.656;7.188;2022-10-16T10:57:21;2.92;;;1.50;;
9938;SDS011;5008;50.656;7.188;2022-10-16T10:59:55;0.73;;;0.73;;
9938;SDS011;5008;50.656;7.188;2022-10-16T11:02:31;1.63;;;0.82;;
9938;SDS011;5008;50.656;7.188;2022-10-16T11:05:15;3.22;;;2.92;;
9938;SDS011;5008;50.656;7.188;2022-10-16T11:07:57;4.32;;;2.35;;
9938;SDS011;5008;50.656;7.188;2022-10-16T11:10:27;0.57;;;0.57;;
9938;SDS011;5008;50.656;7.188;2022-10-16T11:13:00;1.15;;;1.05;;
9938;SDS011;5008;50.656;7.188;2022-10-16T11:15:40;1.17;;;1.10;;
9938;SDS011;5008;50.656;7.188;2022-10-16T11:18:11;2.08;;;1.67;;
9938;SDS011;5008;50.656;7.188;2022-10-16T11:20:45;0.77;;;0.70;;
9938;SDS011;5008;50.656;7.188;2022-10-16T11:23:18;1.05;;;0.57;;
9938;SDS011;5008;50.656;7.188;2022-10-16T11:25:59;0.80;;;0.70;;
9938;SDS011;5008;50.656;7.188;2022-10-16T11:28:34;0.70;;;0.50;;
9938;SDS011;5008;50.656;7.188;2022-10-16T11:31:22;0.38;;;0.38;;
9938;SDS011;5008;50.656;7.188;2022-10-16T11:33:57;3.00;;;1.20;;
9938;SDS011;5008;50.656;7.188;2022-10-16T11:36:31;2.20;;;0.65;;
9938;SDS011;5008;50.656;7.188;2022-10-16T11:39:07;0.52;;;0.52;;
9938;SDS011;5008;50.656;7.188;2022-10-16T11:41:43;0.80;;;0.80;;
9938;SDS011;5008;50.656;7.188;2022-10-16T11:44:16;3.33;;;2.50;;
9938;SDS011;5008;50.656;7.188;2022-10-16T11:46:57;2.38;;;1.63;;
9938;SDS011;5008;50.656;7.188;2022-10-16T11:49:32;1.77;;;0.77;;
9938;SDS011;5008;50.656;7.188;2022-10-16T11:52:01;0.60;;;0.60;;
9938;SDS011;5008;50.656;7.188;2022-10-16T11:54:37;0.60;;;0.60;;
9938;SDS011;5008;50.656;7.188;2022-10-16T11:57:12;0.43;;;0.43;;
9938;SDS011;5008;50.656;7.188;2022-10-16T11:59:44;0.52;;;0.52;;
9938;SDS011;5008;50.656;7.188;2022-10-16T12:02:28;0.65;;;0.65;;
9938;SDS011;5008;50.656;7.188;2022-10-16T12:05:06;1.55;;;1.05;;
9938;SDS011;5008;50.656;7.188;2022-10-16T12:08:19;1.67;;;0.60;;
9938;SDS011;5008;50.656;7.188;2022-10-16T12:11:07;0.52;;;0.52;;
9938;SDS011;5008;50.656;7.188;2022-10-16T12:13:46;0.80;;;0.80;;
9938;SDS011;5008;50.656;7.188;2022-10-16T12:16:21;0.80;;;0.80;;
9938;SDS011;5008;50.656;7.188;2022-10-16T12:18:50;0.60;;;0.60;;
9938;SDS011;5008;50.656;7.188;2022-10-16T12:21:35;0.77;;;0.77;;
9938;SDS011;5008;50.656;7.188;2022-10-16T12:24:03;2.58;;;0.70;;
9938;SDS011;5008;50.656;7.188;2022-10-16T12:26:32;0.63;;;0.63;;
9938;SDS011;5008;50.656;7.188;2022-10-16T12:29:12;0.98;;;0.55;;
9938;SDS011;5008;50.656;7.188;2022-10-16T12:31:44;1.40;;;0.60;;
9938;SDS011;5008;50.656;7.188;2022-10-16T12:34:14;0.45;;;0.45;;
9938;SDS011;5008;50.656;7.188;2022-10-16T12:36:49;0.50;;;0.50;;
9938;SDS011;5008;50.656;7.188;2022-10-16T12:39:20;0.50;;;0.50;;
9938;SDS011;5008;50.656;7.188;2022-10-16T12:41:59;0.50;;;0.50;;
9938;SDS011;5008;50.656;7.188;2022-10-16T12:44:31;0.55;;;0.55;;
9938;SDS011;5008;50.656;7.188;2022-10-16T12:46:59;1.10;;;0.60;;
9938;SDS011;5008;50.656;7.188;2022-10-16T12:49:31;0.73;;;0.73;;
9938;SDS011;5008;50.656;7.188;2022-10-16T12:52:01;0.40;;;0.40;;
9938;SDS011;5008;50.656;7.188;2022-10-16T12:54:29;0.82;;;0.63;;
9938;SDS011;5008;50.656;7.188;2022-10-16T12:57:09;0.95;;;0.90;;
9938;SDS011;5008;50.656;7.188;2022-10-16T12:59:50;0.60;;;0.60;;
9938;SDS011;5008;50.656;7.188;2022-10-16T13:02:38;0.60;;;0.50;;
9938;SDS011;5008;50.656;7.188;2022-10-16T13:05:26;0.60;;;0.60;;
9938;SDS011;5008;50.656;7.188;2022-10-16T13:08:09;0.88;;;0.70;;
9938;SDS011;5008;50.656;7.188;2022-10-16T13:10:52;0.85;;;0.73;;
9938;SDS011;5008;50.656;7.188;2022-10-16T13:13:33;1.05;;;0.75;;
9938;SDS011;5008;50.656;7.188;2022-10-16T13:16:22;0.93;;;0.93;;
9938;SDS011;5008;50.656;7.188;2022-10-16T13:18:59;0.75;;;0.70;;
9938;SDS011;5008;50.656;7.188;2022-10-16T13:21:38;0.77;;;0.77;;
9938;SDS011;5008;50.656;7.188;2022-10-16T13:24:17;0.65;;;0.50;;
9938;SDS011;5008;50.656;7.188;2022-10-16T13:26:53;0.50;;;0.50;;
9938;SDS011;5008;50.656;7.188;2022-10-16T13:29:32;0.77;;;0.77;;
9938;SDS011;5008;50.656;7.188;2022-10-16T13:32:00;0.52;;;0.52;;
9938;SDS011;5008;50.656;7.188;2022-10-16T13:34:32;0.65;;;0.43;;
9938;SDS011;5008;50.656;7.188;2022-10-16T13:37:15;0.43;;;0.43;;
9938;SDS011;5008;50.656;7.188;2022-10-16T13:39:43;0.60;;;0.60;;
9938;SDS011;5008;50.656;7.188;2022-10-16T13:42:12;0.70;;;0.70;;
9938;SDS011;5008;50.656;7.188;2022-10-16T13:44:43;0.95;;;0.80;;
9938;SDS011;5008;50.656;7.188;2022-10-16T13:47:17;0.70;;;0.70;;
9938;SDS011;5008;50.656;7.188;2022-10-16T13:49:45;0.73;;;0.73;;
9938;SDS011;5008;50.656;7.188;2022-10-16T13:52:17;0.65;;;0.65;;
9938;SDS011;5008;50.656;7.188;2022-10-16T13:54:45;1.08;;;0.90;;
9938;SDS011;5008;50.656;7.188;2022-10-16T13:57:13;0.60;;;0.60;;
9938;SDS011;5008;50.656;7.188;2022-10-16T13:59:40;0.82;;;0.77;;
9938;SDS011;5008;50.656;7.188;2022-10-16T14:02:14;1.60;;;0.82;;
9938;SDS011;5008;50.656;7.188;2022-10-16T14:04:47;1.25;;;0.63;;
9938;SDS011;5008;50.656;7.188;2022-10-16T14:07:17;0.73;;;0.70;;
9938;SDS011;5008;50.656;7.188;2022-10-16T14:09:48;0.80;;;0.80;;
9938;SDS011;5008;50.656;7.188;2022-10-16T14:12:17;3.22;;;0.88;;
9938;SDS011;5008;50.656;7.188;2022-10-16T14:14:46;0.80;;;0.80;;
9938;SDS011;5008;50.656;7.188;2022-10-16T14:17:15;0.60;;;0.60;;
9938;SDS011;5008;50.656;7.188;2022-10-16T14:19:46;0.63;;;0.63;;
9938;SDS011;5008;50.656;7.188;2022-10-16T14:22:24;1.40;;;0.80;;
9938;SDS011;5008;50.656;7.188;2022-10-16T14:24:56;0.80;;;0.80;;
9938;SDS011;5008;50.656;7.188;2022-10-16T14:27:26;0.70;;;0.70;;
9938;SDS011;5008;50.656;7.188;2022-10-16T14:30:12;0.63;;;0.60;;
9938;SDS011;5008;50.656;7.188;2022-10-16T14:32:42;0.65;;;0.50;;
9938;SDS011;5008;50.656;7.188;2022-10-16T14:35:23;3.60;;;0.85;;
9938;SDS011;5008;50.656;7.188;2022-10-16T14:37:52;1.55;;;1.02;;
9938;SDS011;5008;50.656;7.188;2022-10-16T14:40:20;1.27;;;1.00;;
9938;SDS011;5008;50.656;7.188;2022-10-16T14:42:50;0.65;;;0.65;;
9938;SDS011;5008;50.656;7.188;2022-10-16T14:45:20;0.80;;;0.80;;
9938;SDS011;5008;50.656;7.188;2022-10-16T14:47:49;0.80;;;0.80;;
9938;SDS011;5008;50.656;7.188;2022-10-16T14:50:18;0.70;;;0.70;;
9938;SDS011;5008;50.656;7.188;2022-10-16T14:52:45;1.77;;;0.80;;
9938;SDS011;5008;50.656;7.188;2022-10-16T14:55:12;0.73;;;0.60;;
9938;SDS011;5008;50.656;7.188;2022-10-16T14:57:39;0.60;;;0.60;;
9938;SDS011;5008;50.656;7.188;2022-10-16T15:00:09;0.75;;;0.57;;
9938;SDS011;5008;50.656;7.188;2022-10-16T15:02:43;0.60;;;0.60;;
9938;SDS011;5008;50.656;7.188;2022-10-16T15:05:12;0.80;;;0.73;;
9938;SDS011;5008;50.656;7.188;2022-10-16T15:07:41;1.00;;;0.90;;
9938;SDS011;5008;50.656;7.188;2022-10-16T15:10:08;0.88;;;0.70;;
9938;SDS011;5008;50.656;7.188;2022-10-16T15:15:09;0.65;;;0.65;;
9938;SDS011;5008;50.656;7.188;2022-10-16T15:17:51;1.33;;;1.02;;
9938;SDS011;5008;50.656;7.188;2022-10-16T15:20:20;0.70;;;0.70;;
9938;SDS011;5008;50.656;7.188;2022-10-16T15:22:47;0.90;;;0.68;;
9938;SDS011;5008;50.656;7.188;2022-10-16T15:25:17;0.73;;;0.73;;
9938;SDS011;5008;50.656;7.188;2022-10-16T15:27:54;1.08;;;0.80;;
9938;SDS011;5008;50.656;7.188;2022-10-16T15:30:21;1.08;;;0.90;;
9938;SDS011;5008;50.656;7.188;2022-10-16T15:32:48;0.82;;;0.80;;
9938;SDS011;5008;50.656;7.188;2022-10-16T15:35:16;2.33;;;0.75;;
9938;SDS011;5008;50.656;7.188;2022-10-16T15:37:43;1.33;;;0.90;;
9938;SDS011;5008;50.656;7.188;2022-10-16T15:40:10;0.70;;;0.70;;
9938;SDS011;5008;50.656;7.188;2022-10-16T15:42:37;2.88;;;0.90;;
9938;SDS011;5008;50.656;7.188;2022-10-16T15:45:04;1.40;;;0.82;;
9938;SDS011;5008;50.656;7.188;2022-10-16T15:47:32;2.38;;;1.08;;
9938;SDS011;5008;50.656;7.188;2022-10-16T15:49:59;1.60;;;1.10;;
9938;SDS011;5008;50.656;7.188;2022-10-16T15:52:27;1.20;;;1.10;;
9938;SDS011;5008;50.656;7.188;2022-10-16T15:54:56;0.80;;;0.80;;
9938;SDS011;5008;50.656;7.188;2022-10-16T15:57:23;1.55;;;1.13;;
9938;SDS011;5008;50.656;7.188;2022-10-16T15:59:50;0.80;;;0.80;;
9938;SDS011;5008;50.656;7.188;2022-10-16T16:02:17;1.00;;;0.98;;
9938;SDS011;5008;50.656;7.188;2022-10-16T16:04:44;0.80;;;0.80;;
9938;SDS011;5008;50.656;7.188;2022-10-16T16:07:11;1.15;;;0.85;;
9938;SDS011;5008;50.656;7.188;2022-10-16T16:09:39;0.90;;;0.90;;
9938;SDS011;5008;50.656;7.188;2022-10-16T16:12:06;0.90;;;0.90;;
9938;SDS011;5008;50.656;7.188;2022-10-16T16:14:33;1.73;;;1.23;;
9938;SDS011;5008;50.656;7.188;2022-10-16T16:16:59;1.13;;;1.02;;
9938;SDS011;5008;50.656;7.188;2022-10-16T16:19:27;1.25;;;0.98;;
9938;SDS011;5008;50.656;7.188;2022-10-16T16:21:53;1.02;;;0.90;;
9938;SDS011;5008;50.656;7.188;2022-10-16T16:24:20;1.10;;;1.10;;
9938;SDS011;5008;50.656;7.188;2022-10-16T16:26:48;1.05;;;1.02;;
9938;SDS011;5008;50.656;7.188;2022-10-16T16:29:15;1.20;;;1.10;;
9938;SDS011;5008;50.656;7.188;2022-10-16T16:31:42;1.08;;;1.05;;
9938;SDS011;5008;50.656;7.188;2022-10-16T16:34:09;0.95;;;0.95;;
9938;SDS011;5008;50.656;7.188;2022-10-16T16:36:36;1.27;;;1.17;;
9938;SDS011;5008;50.656;7.188;2022-10-16T16:39:05;1.35;;;1.25;;